Time;durP1;ratioP1;P1;durP2;ratioP2;P2;SDS_P1;SDS_P2;PMS_P1;PMS_P2;Temp;Humidity;BMP_temperature;BMP_pressure;BME280_temperature;BME280_humidity;BME280_pressure;Samples;Min_cycle;Max_cycle;Signal;HPM_P1;HPM_P2
2022/07/01 00:02:19;;;;;;;2.50;2.40;;;23.90;85.90;;;;;;5030980;28;20192;-75
2022/07/01 00:04:45;;;;;;;2.00;1.88;;;23.90;85.90;;;;;;5031545;28;20186;-75
2022/07/01 00:07:29;;;;;;;2.42;1.90;;;23.90;85.80;;;;;;5032974;28;20175;-75
2022/07/01 00:09:55;;;;;;;1.95;1.85;;;23.90;86.00;;;;;;5031275;28;20214;-75
2022/07/01 00:12:21;;;;;;;1.73;1.63;;;23.90;86.00;;;;;;5030990;28;20194;-75
2022/07/01 00:14:47;;;;;;;2.08;1.98;;;24.00;86.00;;;;;;5030763;28;20179;-74
2022/07/01 00:17:12;;;;;;;2.00;1.90;;;23.90;86.00;;;;;;5031544;28;20649;-75
2022/07/01 00:19:38;;;;;;;2.25;1.90;;;23.90;85.90;;;;;;5015619;28;20235;-74
2022/07/01 00:22:04;;;;;;;2.28;2.08;;;23.90;85.90;;;;;;5027903;28;20198;-75
2022/07/01 00:24:30;;;;;;;1.90;1.80;;;23.90;85.90;;;;;;5031242;28;20187;-74
2022/07/01 00:26:55;;;;;;;1.98;1.88;;;23.90;85.70;;;;;;5030839;28;20226;-75
2022/07/01 00:29:21;;;;;;;2.20;2.00;;;23.90;85.70;;;;;;5030954;28;20314;-75
2022/07/01 00:31:47;;;;;;;2.35;1.88;;;23.90;85.80;;;;;;5016664;28;20187;-74
2022/07/01 00:34:13;;;;;;;1.80;1.70;;;23.90;85.80;;;;;;5027848;28;20188;-75
2022/07/01 00:36:38;;;;;;;1.90;1.70;;;23.90;85.80;;;;;;5027809;28;20187;-75
2022/07/01 00:39:04;;;;;;;1.83;1.73;;;23.90;85.90;;;;;;5011301;28;20195;-75
2022/07/01 00:41:30;;;;;;;1.73;1.63;;;23.90;85.90;;;;;;4994271;28;20219;-75
2022/07/01 00:43:57;;;;;;;1.70;1.60;;;23.90;86.00;;;;;;5011292;28;20190;-75
2022/07/01 00:46:24;;;;;;;2.08;1.60;;;23.90;86.60;;;;;;4995284;28;20274;-75
2022/07/01 00:48:58;;;;;;;1.98;1.83;;;23.90;86.00;;;;;;5010950;28;20216;-75
2022/07/01 00:51:24;;;;;;;1.60;1.50;;;23.90;86.00;;;;;;4994769;28;20196;-77
2022/07/01 00:53:50;;;;;;;1.85;1.75;;;23.90;86.00;;;;;;5012478;28;20188;-75
2022/07/01 00:56:19;;;;;;;1.73;1.63;;;23.80;86.00;;;;;;5011270;28;20187;-75
2022/07/01 00:58:45;;;;;;;1.67;1.58;;;23.80;85.80;;;;;;5014553;28;20675;-74
2022/07/01 01:01:11;;;;;;;2.00;1.80;;;23.90;85.90;;;;;;5015281;28;20246;-75
2022/07/01 01:03:37;;;;;;;1.60;1.50;;;23.80;85.70;;;;;;5014676;28;20219;-75
2022/07/01 01:06:03;;;;;;;1.83;1.73;;;23.80;85.60;;;;;;5016278;28;20184;-75
2022/07/01 01:08:29;;;;;;;2.10;1.90;;;23.90;85.60;;;;;;5014984;28;20687;-75
2022/07/01 01:10:55;;;;;;;1.60;1.50;;;23.80;85.50;;;;;;5014808;28;20206;-75
2022/07/01 01:13:21;;;;;;;1.70;1.60;;;23.90;85.50;;;;;;4998296;28;20184;-74
2022/07/01 01:15:47;;;;;;;1.90;1.65;;;23.90;85.10;;;;;;4998476;28;20191;-76
2022/07/01 01:18:13;;;;;;;1.58;1.42;;;23.90;85.00;;;;;;4998832;28;20196;-75
2022/07/01 01:20:39;;;;;;;1.70;1.60;;;23.90;85.70;;;;;;5031152;28;20212;-75
2022/07/01 01:23:05;;;;;;;1.63;1.52;;;23.90;85.00;;;;;;4997823;28;20667;-75
2022/07/01 01:25:32;;;;;;;1.73;1.63;;;23.90;84.90;;;;;;4998403;28;20192;-74
2022/07/01 01:27:59;;;;;;;1.52;1.42;;;23.80;84.90;;;;;;5014667;28;20196;-75
2022/07/01 01:30:25;;;;;;;1.52;1.42;;;23.90;85.00;;;;;;4998561;28;20249;-75
2022/07/01 01:32:52;;;;;;;2.00;1.50;;;23.90;85.50;;;;;;4997913;28;20215;-74
2022/07/01 01:35:19;;;;;;;1.60;1.50;;;23.90;84.70;;;;;;4998468;28;20241;-76
2022/07/01 01:37:45;;;;;;;1.52;1.42;;;23.90;84.70;;;;;;5014466;28;20196;-75
2022/07/01 01:40:13;;;;;;;1.80;1.70;;;23.90;84.90;;;;;;5031156;28;20200;-75
2022/07/01 01:42:40;;;;;;;1.45;1.35;;;23.80;85.50;;;;;;4997598;28;20190;-75
2022/07/01 01:45:06;;;;;;;1.63;1.48;;;23.80;84.90;;;;;;5031316;28;20188;-75
2022/07/01 01:47:32;;;;;;;1.55;1.45;;;23.80;84.80;;;;;;4998181;28;20195;-74
2022/07/01 01:49:58;;;;;;;1.60;1.50;;;23.80;84.40;;;;;;5013939;28;20223;-75
2022/07/01 01:52:24;;;;;;;1.55;1.45;;;23.90;84.50;;;;;;5014136;28;20218;-75
2022/07/01 01:54:50;;;;;;;1.50;1.40;;;23.80;84.60;;;;;;4997870;28;20279;-75
2022/07/01 01:57:16;;;;;;;1.33;1.25;;;23.80;84.80;;;;;;5014355;28;20239;-74
2022/07/01 01:59:41;;;;;;;1.40;1.40;;;23.80;84.90;;;;;;4998040;28;20212;-75
2022/07/01 02:02:07;;;;;;;1.58;1.48;;;23.80;84.90;;;;;;4997431;28;20191;-75
2022/07/01 02:04:33;;;;;;;1.60;1.50;;;23.80;84.90;;;;;;5014025;28;20579;-75
2022/07/01 02:06:59;;;;;;;1.30;1.20;;;23.80;84.60;;;;;;4997764;28;20262;-75
2022/07/01 02:09:25;;;;;;;1.38;1.27;;;23.80;84.60;;;;;;5028889;28;20695;-75
2022/07/01 02:11:51;;;;;;;1.70;1.60;;;23.80;84.40;;;;;;5013627;28;20271;-75
2022/07/01 02:14:17;;;;;;;1.20;1.20;;;23.80;84.40;;;;;;5014188;28;20287;-74
2022/07/01 02:16:42;;;;;;;1.30;1.23;;;23.80;84.20;;;;;;5013619;28;20298;-75
2022/07/01 02:19:08;;;;;;;1.17;1.17;;;23.80;83.80;;;;;;4998023;28;20196;-73
2022/07/01 02:21:34;;;;;;;1.00;1.00;;;23.80;84.30;;;;;;5030356;28;20183;-74
2022/07/01 02:23:59;;;;;;;1.23;1.13;;;23.80;84.40;;;;;;5033691;28;20187;-75
2022/07/01 02:26:25;;;;;;;1.20;1.20;;;23.80;84.20;;;;;;5034535;28;20245;-75
2022/07/01 02:28:51;;;;;;;1.40;1.30;;;23.80;84.00;;;;;;5033285;28;20207;-75
2022/07/01 02:31:17;;;;;;;1.50;1.40;;;23.80;83.60;;;;;;5014875;28;20204;-74
2022/07/01 02:33:42;;;;;;;1.40;1.30;;;23.80;83.50;;;;;;5013270;28;20183;-75
2022/07/01 02:36:08;;;;;;;1.23;1.17;;;23.80;83.30;;;;;;5014682;28;20172;-75
2022/07/01 02:38:34;;;;;;;1.40;1.30;;;23.80;83.50;;;;;;5013438;28;20188;-75
2022/07/01 02:41:00;;;;;;;1.50;1.40;;;23.80;83.80;;;;;;5013378;28;20212;-75
2022/07/01 02:43:26;;;;;;;1.55;1.45;;;23.80;83.50;;;;;;5012710;28;20187;-75
2022/07/01 02:45:51;;;;;;;1.30;1.23;;;23.80;83.50;;;;;;5013196;28;20195;-76
2022/07/01 02:48:17;;;;;;;1.15;1.05;;;23.80;83.60;;;;;;4996611;28;20218;-74
2022/07/01 02:50:43;;;;;;;1.10;1.10;;;23.80;83.50;;;;;;5012955;28;20208;-75
2022/07/01 02:53:08;;;;;;;1.38;1.27;;;23.80;83.50;;;;;;5013927;28;20172;-75
2022/07/01 02:55:34;;;;;;;1.23;1.13;;;23.80;83.50;;;;;;5012642;28;20778;-75
2022/07/01 02:58:00;;;;;;;1.35;1.20;;;23.80;83.60;;;;;;5013177;28;20242;-75
2022/07/01 03:00:26;;;;;;;1.10;1.10;;;23.80;83.60;;;;;;5012807;28;20204;-75
2022/07/01 03:02:52;;;;;;;1.20;1.20;;;23.80;83.60;;;;;;5013444;28;20188;-74
2022/07/01 03:05:17;;;;;;;1.13;1.13;;;23.80;83.60;;;;;;5012780;28;20192;-75
2022/07/01 03:07:44;;;;;;;1.30;1.20;;;23.80;83.10;;;;;;5013034;28;20215;-75
2022/07/01 03:10:10;;;;;;;1.00;1.00;;;23.80;83.50;;;;;;5012804;28;20192;-75
2022/07/01 03:12:38;;;;;;;1.45;1.30;;;23.80;83.10;;;;;;5017953;28;20213;-74
2022/07/01 03:15:14;;;;;;;1.00;1.00;;;23.70;83.10;;;;;;5032764;28;20183;-75
2022/07/01 03:17:46;;;;;;;1.30;1.20;;;23.80;83.80;;;;;;5032580;28;20183;-75
2022/07/01 03:20:17;;;;;;;1.08;1.08;;;23.80;82.90;;;;;;5048773;28;20237;-75
2022/07/01 03:22:45;;;;;;;1.10;1.10;;;23.80;82.90;;;;;;5031960;28;20286;-75
2022/07/01 03:25:11;;;;;;;1.10;1.10;;;23.80;83.00;;;;;;5033501;28;20186;-75
2022/07/01 03:27:44;;;;;;;1.05;1.05;;;23.70;83.20;;;;;;5032466;28;20230;-75
2022/07/01 03:30:12;;;;;;;0.88;0.85;;;23.80;82.90;;;;;;5032051;28;20219;-75
2022/07/01 03:32:38;;;;;;;0.90;0.90;;;23.80;83.10;;;;;;5031382;28;20190;-75
2022/07/01 03:35:35;;;;;;;1.23;1.10;;;23.70;83.20;;;;;;5032131;28;20188;-75
2022/07/01 03:37:50;;;;;;;1.08;1.08;;;23.70;82.80;;;;;;5033132;28;20270;-75
2022/07/01 03:40:16;;;;;;;1.08;1.08;;;23.80;82.90;;;;;;5032248;28;20227;-76
2022/07/01 03:42:42;;;;;;;1.02;1.02;;;23.70;82.90;;;;;;5031606;28;20183;-75
2022/07/01 03:45:08;;;;;;;1.00;1.00;;;23.70;83.00;;;;;;5031821;28;20307;-75
2022/07/01 03:47:34;;;;;;;1.13;1.00;;;23.70;83.10;;;;;;5032141;28;20187;-75
2022/07/01 03:50:00;;;;;;;1.00;1.00;;;23.80;83.20;;;;;;5031333;28;20241;-75
2022/07/01 03:52:26;;;;;;;1.10;1.10;;;23.70;83.00;;;;;;5031106;28;20180;-75
2022/07/01 03:54:51;;;;;;;1.08;1.08;;;23.70;83.10;;;;;;5031845;28;20207;-75
2022/07/01 03:57:17;;;;;;;1.58;1.10;;;23.70;82.70;;;;;;5031570;28;20530;-76
2022/07/01 03:59:43;;;;;;;1.27;1.20;;;23.70;82.50;;;;;;5031741;28;20245;-75
2022/07/01 04:02:09;;;;;;;1.05;1.05;;;23.70;82.70;;;;;;5031032;28;20183;-75
2022/07/01 04:04:35;;;;;;;1.00;1.00;;;23.70;82.50;;;;;;5031175;28;20682;-75
2022/07/01 04:07:05;;;;;;;1.27;1.17;;;23.70;82.30;;;;;;5031543;28;20180;-74
2022/07/01 04:09:32;;;;;;;1.00;1.00;;;23.70;81.80;;;;;;5048252;28;20226;-74
2022/07/01 04:11:58;;;;;;;1.20;1.20;;;23.70;82.40;;;;;;5030997;28;20214;-75
2022/07/01 04:14:24;;;;;;;1.00;1.00;;;23.70;82.60;;;;;;5048126;28;20270;-75
2022/07/01 04:16:51;;;;;;;1.33;1.23;;;23.70;82.80;;;;;;5032505;28;20270;-76
2022/07/01 04:19:18;;;;;;;1.00;1.00;;;23.70;83.10;;;;;;5014771;28;20203;-75
2022/07/01 04:24:32;;;;;;;0.98;0.98;;;23.70;82.70;;;;;;5031290;28;20182;-75
2022/07/01 04:26:59;;;;;;;1.10;1.10;;;23.70;82.70;;;;;;5031305;28;20180;-75
2022/07/01 04:29:25;;;;;;;1.00;1.00;;;23.70;82.20;;;;;;5031165;28;20235;-75
2022/07/01 04:31:51;;;;;;;0.90;0.90;;;23.70;82.30;;;;;;5030392;28;20203;-76
2022/07/01 04:34:18;;;;;;;0.90;0.90;;;23.70;82.30;;;;;;5031203;28;20170;-75
2022/07/01 04:36:44;;;;;;;1.20;1.20;;;23.70;81.60;;;;;;5031101;28;20187;-75
2022/07/01 04:39:10;;;;;;;1.10;1.10;;;23.70;81.60;;;;;;5031219;28;20260;-75
2022/07/01 04:44:20;;;;;;;1.23;1.10;;;23.70;82.20;;;;;;5032349;28;20262;-75
2022/07/01 04:46:46;;;;;;;1.17;1.08;;;23.70;81.10;;;;;;5031046;28;20277;-75
2022/07/01 04:49:12;;;;;;;0.90;0.90;;;23.70;81.30;;;;;;5030786;28;20203;-75
2022/07/01 04:51:38;;;;;;;0.90;0.90;;;23.60;81.20;;;;;;5031078;28;20184;-75
2022/07/01 04:54:06;;;;;;;0.85;0.85;;;23.60;81.10;;;;;;5029774;28;20564;-74
2022/07/01 04:56:33;;;;;;;1.20;1.10;;;23.60;81.10;;;;;;5031314;28;20273;-75
2022/07/01 04:59:00;;;;;;;0.63;0.63;;;23.60;80.90;;;;;;5014059;28;20192;-75
2022/07/01 05:01:27;;;;;;;1.50;0.90;;;23.60;81.00;;;;;;5011199;28;20281;-74
2022/07/01 05:03:54;;;;;;;1.02;1.00;;;23.60;80.90;;;;;;5027118;28;20682;-74
2022/07/01 05:06:19;;;;;;;0.80;0.80;;;23.60;80.70;;;;;;5011286;28;20230;-75
2022/07/01 05:08:45;;;;;;;0.95;0.95;;;23.60;80.50;;;;;;5011457;28;20318;-75
2022/07/01 05:11:11;;;;;;;0.90;0.90;;;23.60;80.30;;;;;;5011405;28;20204;-75
2022/07/01 05:13:38;;;;;;;0.70;0.70;;;23.60;80.20;;;;;;5026370;28;20183;-75
2022/07/01 05:16:04;;;;;;;0.70;0.70;;;23.60;80.10;;;;;;5031004;28;20183;-75
2022/07/01 05:24:00;;;;;;;0.70;0.70;;;23.60;79.80;;;;;;5030311;28;20218;-75
2022/07/01 05:26:26;;;;;;;0.80;0.80;;;23.60;79.20;;;;;;5028990;28;20207;-75
2022/07/01 05:28:53;;;;;;;0.85;0.85;;;23.60;79.20;;;;;;5013352;28;20294;-75
2022/07/01 05:31:19;;;;;;;0.90;0.90;;;23.60;79.20;;;;;;5017648;28;20204;-75
2022/07/01 05:33:46;;;;;;;0.93;0.93;;;23.60;79.20;;;;;;5027130;28;20242;-75
2022/07/01 05:36:11;;;;;;;1.05;0.90;;;23.60;79.10;;;;;;5010828;28;20648;-75
2022/07/01 05:38:37;;;;;;;0.90;0.90;;;23.60;79.20;;;;;;5027815;28;20192;-75
2022/07/01 05:41:03;;;;;;;0.80;0.80;;;23.60;79.10;;;;;;5012203;28;20196;-74
2022/07/01 05:43:30;;;;;;;0.63;0.63;;;23.50;79.10;;;;;;5011555;28;20195;-75
2022/07/01 05:45:56;;;;;;;0.80;0.80;;;23.50;79.10;;;;;;5014351;28;20266;-76
2022/07/01 05:48:22;;;;;;;1.30;0.60;;;23.50;79.00;;;;;;5014059;28;20219;-75
2022/07/01 05:50:49;;;;;;;0.65;0.65;;;23.60;79.10;;;;;;5014516;28;20204;-75
2022/07/01 05:53:15;;;;;;;0.63;0.63;;;23.50;79.00;;;;;;5015117;28;20188;-75
2022/07/01 05:55:42;;;;;;;0.88;0.88;;;23.50;78.80;;;;;;5030542;28;20195;-75
2022/07/01 05:58:10;;;;;;;0.95;0.85;;;23.50;78.80;;;;;;5030739;28;20192;-75
2022/07/01 06:00:36;;;;;;;0.95;0.70;;;23.60;78.70;;;;;;5030798;28;20216;-75
2022/07/01 06:03:02;;;;;;;2.60;0.90;;;23.60;78.70;;;;;;5013412;28;20180;-74
2022/07/01 06:05:29;;;;;;;0.60;0.60;;;23.50;78.30;;;;;;5014403;28;20184;-77
2022/07/01 06:07:55;;;;;;;0.80;0.80;;;23.50;78.60;;;;;;5015118;28;20198;-75
2022/07/01 06:10:21;;;;;;;0.70;0.70;;;23.50;78.60;;;;;;5030746;28;20679;-75
2022/07/01 06:12:46;;;;;;;0.70;0.70;;;23.50;78.60;;;;;;5030400;28;20192;-74
2022/07/01 06:15:13;;;;;;;0.70;0.70;;;23.50;78.40;;;;;;5030532;28;20191;-75
2022/07/01 06:17:41;;;;;;;0.70;0.70;;;23.50;78.20;;;;;;5014204;28;20181;-75
2022/07/01 06:20:08;;;;;;;0.70;0.60;;;23.50;79.00;;;;;;5013594;28;20215;-75
2022/07/01 06:22:34;;;;;;;0.43;0.43;;;23.50;78.10;;;;;;5029696;28;20187;-75
2022/07/01 06:25:02;;;;;;;0.65;0.65;;;23.50;78.00;;;;;;5013662;28;20196;-75
2022/07/01 06:27:28;;;;;;;0.68;0.68;;;23.50;78.20;;;;;;5013946;28;20184;-75
2022/07/01 06:29:53;;;;;;;0.57;0.50;;;23.50;78.10;;;;;;5013744;28;20300;-75
2022/07/01 06:32:19;;;;;;;0.60;0.60;;;23.50;78.00;;;;;;5013173;28;20176;-75
2022/07/01 06:34:46;;;;;;;0.50;0.50;;;23.50;78.10;;;;;;5030059;28;20192;-75
2022/07/01 06:37:12;;;;;;;0.50;0.50;;;23.50;78.10;;;;;;5013341;28;20207;-75
2022/07/01 06:39:38;;;;;;;0.50;0.50;;;23.50;78.10;;;;;;5013239;28;20260;-75
2022/07/01 06:42:04;;;;;;;0.50;0.50;;;23.50;78.00;;;;;;5012758;28;20279;-75
2022/07/01 06:44:30;;;;;;;0.50;0.50;;;23.50;78.00;;;;;;5014602;28;20184;-75
2022/07/01 06:46:55;;;;;;;0.65;0.40;;;23.40;78.00;;;;;;5027681;28;20195;-75
2022/07/01 06:49:21;;;;;;;0.55;0.55;;;23.50;77.90;;;;;;5032908;28;20234;-75
2022/07/01 06:51:47;;;;;;;0.45;0.45;;;23.50;78.00;;;;;;5033291;28;20647;-75
2022/07/01 06:54:13;;;;;;;0.60;0.60;;;23.50;78.00;;;;;;5032430;28;20269;-75
2022/07/01 06:56:39;;;;;;;0.50;0.50;;;23.50;77.90;;;;;;5032395;28;20187;-75
2022/07/01 06:59:05;;;;;;;0.50;0.50;;;23.40;77.70;;;;;;5033116;28;20183;-75
2022/07/01 07:01:31;;;;;;;0.47;0.40;;;23.50;78.00;;;;;;5033482;28;20294;-75
2022/07/01 07:03:56;;;;;;;0.50;0.50;;;23.50;77.90;;;;;;5032297;28;20183;-75
2022/07/01 07:06:22;;;;;;;0.30;0.30;;;23.50;77.90;;;;;;5032914;28;20194;-74
2022/07/01 07:08:48;;;;;;;0.60;0.60;;;23.40;77.70;;;;;;5032903;28;20269;-75
2022/07/01 07:11:14;;;;;;;0.40;0.40;;;23.50;77.90;;;;;;5032690;28;20191;-76
2022/07/01 07:13:42;;;;;;;0.43;0.43;;;23.50;77.70;;;;;;5032376;28;20226;-75
2022/07/01 07:16:08;;;;;;;0.50;0.50;;;23.50;77.50;;;;;;5032789;28;20183;-75
2022/07/01 07:18:34;;;;;;;0.43;0.43;;;23.40;77.60;;;;;;5032784;28;20237;-74
2022/07/01 07:21:00;;;;;;;0.40;0.40;;;23.40;77.40;;;;;;5032313;28;20237;-75
2022/07/01 07:23:26;;;;;;;0.40;0.40;;;23.40;77.30;;;;;;5031890;28;20195;-75
2022/07/01 07:25:52;;;;;;;0.30;0.30;;;23.40;77.40;;;;;;5016707;28;20188;-75
2022/07/01 07:28:17;;;;;;;0.55;0.55;;;23.40;77.20;;;;;;5013656;28;20289;-74
2022/07/01 07:30:43;;;;;;;0.40;0.40;;;23.40;77.40;;;;;;5012602;28;20748;-75
2022/07/01 07:33:09;;;;;;;0.50;0.50;;;23.50;77.50;;;;;;5012202;28;20210;-75
2022/07/01 07:35:35;;;;;;;0.52;0.40;;;23.50;77.50;;;;;;5020019;28;20232;-73
2022/07/01 07:38:00;;;;;;;1.05;0.50;;;23.40;77.60;;;;;;5032031;28;20197;-74
2022/07/01 07:40:26;;;;;;;0.50;0.50;;;23.40;77.50;;;;;;5031878;28;20215;-75
2022/07/01 07:42:53;;;;;;;0.50;0.50;;;23.40;77.40;;;;;;5031445;28;20187;-76
2022/07/01 07:45:19;;;;;;;0.52;0.50;;;23.40;77.40;;;;;;5031854;28;20250;-75
2022/07/01 07:47:54;;;;;;;0.40;0.40;;;23.50;77.50;;;;;;5048443;28;20302;-75
2022/07/01 07:50:21;;;;;;;0.60;0.40;;;23.50;77.40;;;;;;5031694;28;20219;-75
2022/07/01 07:52:47;;;;;;;0.40;0.30;;;23.40;77.40;;;;;;5030629;28;20191;-75
2022/07/01 07:55:13;;;;;;;0.40;0.40;;;23.40;77.40;;;;;;5031491;28;20218;-75
2022/07/01 07:57:40;;;;;;;0.35;0.35;;;23.40;77.40;;;;;;5031413;28;20179;-74
2022/07/01 08:00:10;;;;;;;0.40;0.40;;;23.40;77.40;;;;;;5031880;28;20261;-75
2022/07/01 08:02:40;;;;;;;0.85;0.43;;;23.40;77.40;;;;;;5031085;28;20187;-75
2022/07/01 08:05:08;;;;;;;0.85;0.40;;;23.40;77.30;;;;;;5032835;28;20275;-74
2022/07/01 08:07:39;;;;;;;0.73;0.50;;;23.40;77.30;;;;;;5031584;28;20664;-75
2022/07/01 08:10:08;;;;;;;1.08;0.50;;;23.40;77.20;;;;;;5015022;28;20222;-75
2022/07/01 08:12:34;;;;;;;0.52;0.40;;;23.40;77.10;;;;;;5031019;28;20190;-74
2022/07/01 08:15:01;;;;;;;0.40;0.40;;;23.40;77.10;;;;;;5031624;28;20187;-75
2022/07/01 08:17:27;;;;;;;0.50;0.50;;;23.40;77.10;;;;;;5047928;28;20197;-75
2022/07/01 08:19:53;;;;;;;1.48;0.40;;;23.40;77.20;;;;;;5032378;28;20210;-75
2022/07/01 08:22:19;;;;;;;1.45;0.60;;;23.40;77.10;;;;;;5031008;28;20244;-75
2022/07/01 08:24:45;;;;;;;0.80;0.38;;;23.40;77.20;;;;;;5031629;28;20198;-75
2022/07/01 08:27:12;;;;;;;0.50;0.50;;;23.40;77.20;;;;;;5047737;28;20228;-74
2022/07/01 08:29:39;;;;;;;0.32;0.32;;;23.40;77.30;;;;;;5031075;28;20686;-74
2022/07/01 08:32:06;;;;;;;0.40;0.40;;;23.40;77.20;;;;;;5031236;28;20214;-74
2022/07/01 08:34:32;;;;;;;0.45;0.45;;;23.40;77.10;;;;;;5030772;28;20183;-74
2022/07/01 08:36:59;;;;;;;0.45;0.30;;;23.40;77.20;;;;;;5031169;28;20179;-75
2022/07/01 08:39:26;;;;;;;0.30;0.30;;;23.40;77.20;;;;;;5031001;28;20194;-74
2022/07/01 08:41:52;;;;;;;0.40;0.40;;;23.40;77.20;;;;;;5031193;28;20190;-74
2022/07/01 08:44:18;;;;;;;0.30;0.30;;;23.40;77.20;;;;;;5030558;28;20187;-74
2022/07/01 08:46:43;;;;;;;0.35;0.35;;;23.40;77.10;;;;;;5031217;28;20190;-75
2022/07/01 08:49:09;;;;;;;0.40;0.40;;;23.40;77.90;;;;;;5031166;28;20237;-74
2022/07/01 08:51:35;;;;;;;0.57;0.57;;;23.40;77.00;;;;;;5030953;28;20194;-74
2022/07/01 08:54:00;;;;;;;0.50;0.50;;;23.40;77.10;;;;;;5015345;28;20192;-74
2022/07/01 08:56:41;;;;;;;0.30;0.30;;;23.40;77.00;;;;;;5011303;28;20180;-74
2022/07/01 08:59:22;;;;;;;0.50;0.50;;;23.40;77.00;;;;;;5011378;28;20194;-74
2022/07/01 09:02:00;;;;;;;0.30;0.30;;;23.40;77.10;;;;;;5011436;28;20194;-74
2022/07/01 09:04:26;;;;;;;0.50;0.50;;;23.40;77.00;;;;;;5011015;28;20310;-73
2022/07/01 09:07:05;;;;;;;0.30;0.30;;;23.40;77.20;;;;;;5011033;28;20187;-74
2022/07/01 09:09:36;;;;;;;0.52;0.40;;;23.40;77.10;;;;;;5011007;28;20301;-74
2022/07/01 09:12:02;;;;;;;0.40;0.40;;;23.40;77.20;;;;;;5011481;28;20318;-74
2022/07/01 09:14:30;;;;;;;0.50;0.50;;;23.40;77.20;;;;;;5010892;28;20183;-74
2022/07/01 09:16:59;;;;;;;0.40;0.40;;;23.40;77.10;;;;;;5012231;28;20238;-74
2022/07/01 09:19:28;;;;;;;0.40;0.40;;;23.40;77.20;;;;;;5013887;28;20198;-75
2022/07/01 09:22:00;;;;;;;0.60;0.60;;;23.40;77.20;;;;;;5021770;28;20537;-74
2022/07/01 09:24:28;;;;;;;0.40;0.40;;;23.40;77.20;;;;;;5017494;28;20190;-74
2022/07/01 09:27:09;;;;;;;0.63;0.40;;;23.40;76.90;;;;;;5035645;28;20179;-74
2022/07/01 09:29:39;;;;;;;0.40;0.40;;;23.40;76.70;;;;;;5017833;28;20313;-74
2022/07/01 09:32:08;;;;;;;0.52;0.52;;;23.30;76.60;;;;;;5018222;28;20214;-74
2022/07/01 09:34:41;;;;;;;0.40;0.40;;;23.40;76.80;;;;;;5033897;28;20183;-74
2022/07/01 09:37:07;;;;;;;0.30;0.30;;;23.40;76.80;;;;;;5034759;28;20175;-74
2022/07/01 09:39:53;;;;;;;0.30;0.30;;;23.40;76.90;;;;;;5018224;28;20203;-74
2022/07/01 09:42:23;;;;;;;1.85;0.40;;;23.40;76.90;;;;;;5017669;28;20175;-73
2022/07/01 09:45:11;;;;;;;0.85;0.30;;;23.40;77.10;;;;;;5017689;28;20191;-74
2022/07/01 09:47:43;;;;;;;0.30;0.30;;;23.30;77.10;;;;;;5035503;28;20179;-74
2022/07/01 09:50:09;;;;;;;0.75;0.35;;;23.40;77.10;;;;;;5033950;28;20814;-74
2022/07/01 09:52:38;;;;;;;0.50;0.50;;;23.40;76.90;;;;;;5017100;28;20274;-74
2022/07/01 09:55:08;;;;;;;0.43;0.40;;;23.40;76.60;;;;;;5034313;28;20191;-74
2022/07/01 09:57:35;;;;;;;0.45;0.30;;;23.40;76.60;;;;;;5033781;28;20203;-74
2022/07/01 10:00:01;;;;;;;0.50;0.50;;;23.30;76.50;;;;;;5017557;28;20214;-74
2022/07/01 10:02:34;;;;;;;0.40;0.40;;;23.40;76.60;;;;;;5033530;28;20183;-74
2022/07/01 10:05:13;;;;;;;1.02;0.50;;;23.40;76.60;;;;;;5017544;28;20190;-74
2022/07/01 10:08:00;;;;;;;0.35;0.35;;;23.40;76.60;;;;;;5017161;28;20211;-74
2022/07/01 10:10:56;;;;;;;1.35;0.40;;;23.40;76.60;;;;;;5017424;28;20211;-75
2022/07/01 10:13:27;;;;;;;0.40;0.40;;;23.30;76.50;;;;;;5034223;28;20167;-75
2022/07/01 10:15:56;;;;;;;0.30;0.30;;;23.30;76.50;;;;;;5034736;28;20197;-74
2022/07/01 10:18:28;;;;;;;0.75;0.40;;;23.30;76.50;;;;;;5033603;28;20184;-75
2022/07/01 10:20:57;;;;;;;0.40;0.32;;;23.30;76.50;;;;;;5016867;28;20269;-74
2022/07/01 10:23:36;;;;;;;0.40;0.40;;;23.30;76.50;;;;;;5033283;28;20339;-74
2022/07/01 10:26:05;;;;;;;0.47;0.30;;;23.30;76.50;;;;;;5034242;22;20227;-74
2022/07/01 10:28:43;;;;;;;0.40;0.40;;;23.30;76.80;;;;;;4993727;28;20213;-74
2022/07/01 10:31:18;;;;;;;0.40;0.40;;;23.30;76.90;;;;;;4976552;28;20189;-74
2022/07/01 10:33:43;;;;;;;0.30;0.30;;;23.30;77.00;;;;;;4977337;28;20180;-74
2022/07/01 10:36:21;;;;;;;0.50;0.43;;;23.30;76.80;;;;;;4993813;28;20213;-74
2022/07/01 10:41:31;;;;;;;0.30;0.30;;;23.30;76.50;;;;;;4994122;28;20189;-74
2022/07/01 10:43:58;;;;;;;0.40;0.40;;;23.30;76.50;;;;;;4977040;28;20181;-74
2022/07/01 10:46:56;;;;;;;0.30;0.30;;;23.30;76.50;;;;;;4989988;28;20228;-74
2022/07/01 10:49:34;;;;;;;0.35;0.35;;;23.30;76.50;;;;;;4987848;28;20269;-74
2022/07/01 10:52:00;;;;;;;0.43;0.35;;;23.30;76.50;;;;;;4974329;28;20189;-75
2022/07/01 10:54:39;;;;;;;0.30;0.30;;;23.30;76.50;;;;;;4973628;28;20178;-75
2022/07/01 10:57:17;;;;;;;0.52;0.50;;;23.30;76.50;;;;;;4973754;28;20681;-75
2022/07/01 11:00:00;;;;;;;0.40;0.40;;;23.30;76.20;;;;;;4990059;28;20300;-75
2022/07/01 11:02:33;;;;;;;0.30;0.30;;;23.30;76.10;;;;;;4973842;28;20669;-75
2022/07/01 11:05:04;;;;;;;0.40;0.40;;;23.30;75.70;;;;;;5006617;28;20201;-75
2022/07/01 11:07:33;;;;;;;0.22;0.22;;;23.30;75.70;;;;;;4975041;28;20213;-74
2022/07/01 11:10:02;;;;;;;0.40;0.40;;;23.30;75.60;;;;;;4973812;28;20212;-75
2022/07/01 11:12:29;;;;;;;0.70;0.50;;;23.30;75.60;;;;;;5005861;28;20564;-74
2022/07/01 11:14:59;;;;;;;0.50;0.35;;;23.30;75.60;;;;;;4973782;28;20248;-75
2022/07/01 11:17:26;;;;;;;0.32;0.32;;;23.30;75.50;;;;;;4975148;28;20225;-74
2022/07/01 11:19:57;;;;;;;0.30;0.30;;;23.20;75.50;;;;;;4957855;28;20273;-74
2022/07/01 11:22:27;;;;;;;0.30;0.30;;;23.30;75.60;;;;;;4974973;28;20205;-74
2022/07/01 11:24:59;;;;;;;0.30;0.30;;;23.30;75.60;;;;;;4973656;28;20220;-73
2022/07/01 11:27:26;;;;;;;0.52;0.52;;;23.30;75.50;;;;;;4973583;28;20272;-75
2022/07/01 11:29:59;;;;;;;0.77;0.50;;;23.30;75.40;;;;;;4973516;28;20228;-75
2022/07/01 11:32:27;;;;;;;0.40;0.40;;;23.30;75.20;;;;;;4973839;28;20241;-75
2022/07/01 11:34:54;;;;;;;0.22;0.22;;;23.20;74.90;;;;;;4973662;28;20566;-72
2022/07/01 11:40:12;;;;;;;1.38;0.60;;;23.30;75.00;;;;;;4973626;28;20196;-72
2022/07/01 11:42:39;;;;;;;4.60;0.32;;;23.30;74.80;;;;;;4973373;28;20241;-72
2022/07/01 11:45:06;;;;;;;0.30;0.30;;;23.30;74.70;;;;;;4974333;28;20249;-73
2022/07/01 11:47:33;;;;;;;0.50;0.50;;;23.30;74.70;;;;;;4972518;28;20205;-73
2022/07/01 11:50:00;;;;;;;0.90;0.30;;;23.30;74.60;;;;;;4973112;28;20221;-72
2022/07/01 11:52:27;;;;;;;0.25;0.25;;;23.30;74.60;;;;;;4973033;28;20572;-72
2022/07/01 11:54:59;;;;;;;0.40;0.40;;;23.30;74.60;;;;;;4972891;28;20184;-73
2022/07/01 11:57:28;;;;;;;0.40;0.40;;;23.30;74.80;;;;;;4972781;28;20209;-72
2022/07/01 11:59:55;;;;;;;0.40;0.40;;;23.30;74.80;;;;;;4973203;28;20190;-72
2022/07/01 12:02:23;;;;;;;0.40;0.40;;;23.30;74.60;;;;;;4973206;28;20239;-72
2022/07/01 12:04:51;;;;;;;0.95;0.40;;;23.30;74.60;;;;;;4972517;28;20190;-71
2022/07/01 12:07:21;;;;;;;0.38;0.38;;;23.30;74.40;;;;;;4972829;28;20747;-71
2022/07/01 12:09:48;;;;;;;0.32;0.30;;;23.30;74.50;;;;;;4973972;28;20213;-71
2022/07/01 12:12:25;;;;;;;0.30;0.30;;;23.30;74.40;;;;;;4974059;28;20180;-71
2022/07/01 12:14:59;;;;;;;0.50;0.50;;;23.30;74.30;;;;;;4972567;28;20182;-71
2022/07/01 12:17:28;;;;;;;0.30;0.30;;;23.30;74.30;;;;;;4983163;28;20711;-70
2022/07/01 12:19:55;;;;;;;0.52;0.30;;;23.30;74.10;;;;;;4992086;28;20220;-71
2022/07/01 12:22:26;;;;;;;0.30;0.30;;;23.30;74.20;;;;;;4991988;28;20264;-71
2022/07/01 12:25:11;;;;;;;0.30;0.30;;;23.20;74.00;;;;;;4991306;28;20239;-72
2022/07/01 12:27:38;;;;;;;0.85;0.50;;;23.20;74.00;;;;;;4992030;28;20259;-72
2022/07/01 12:30:07;;;;;;;0.40;0.40;;;23.20;74.10;;;;;;4991795;28;20209;-72
2022/07/01 12:32:38;;;;;;;0.40;0.40;;;23.30;75.10;;;;;;4991587;28;20239;-71
2022/07/01 12:35:33;;;;;;;0.45;0.45;;;23.30;74.10;;;;;;4975992;28;20188;-71
2022/07/01 12:37:53;;;;;;;1.10;0.52;;;23.30;74.10;;;;;;4991625;28;20209;-71
2022/07/01 12:40:25;;;;;;;0.50;0.50;;;23.30;74.00;;;;;;4991873;28;20181;-71
2022/07/01 12:42:51;;;;;;;0.60;0.60;;;23.30;73.70;;;;;;4975317;28;20188;-71
2022/07/01 12:45:24;;;;;;;0.50;0.50;;;23.30;73.70;;;;;;4991780;28;20200;-72
2022/07/01 12:47:53;;;;;;;0.50;0.50;;;23.30;73.40;;;;;;5008000;28;20213;-72
2022/07/01 12:50:24;;;;;;;0.50;0.50;;;23.30;73.10;;;;;;4991752;28;20219;-72
2022/07/01 12:53:17;;;;;;;1.80;0.60;;;23.30;73.20;;;;;;4975361;28;20688;-72
2022/07/01 12:55:49;;;;;;;0.50;0.50;;;23.40;73.50;;;;;;4995953;28;20173;-72
2022/07/01 12:58:24;;;;;;;0.35;0.35;;;23.40;73.80;;;;;;4979633;28;20715;-71
2022/07/01 13:00:54;;;;;;;0.50;0.50;;;23.40;73.70;;;;;;4997202;28;20169;-72
2022/07/01 13:03:23;;;;;;;0.45;0.45;;;23.40;73.50;;;;;;4995330;28;20181;-71
2022/07/01 13:05:51;;;;;;;0.40;0.40;;;23.40;73.50;;;;;;4995420;28;20235;-71
2022/07/01 13:08:18;;;;;;;0.52;0.40;;;23.40;73.50;;;;;;4995717;28;20288;-71
2022/07/01 13:10:47;;;;;;;0.40;0.40;;;23.30;73.10;;;;;;4995704;28;20184;-72